الصفحة الرئيسية
METAR-TAF:

METAR-TAF

مطار :

سابورو, اليابان

دائرة عرض: 43-07N, خط طول: 141-23E, ارتفاع: 8 متر

مراقبة الطقس الحالي

تاريخ ووقت الإصدار 3ساعات و 17 دقيقة قبل الساعة 11:00UTC
ريح 12 عقدة من الجنوب الشرقي
درجة الحرارة 19°درجة مئوية
الرطوبة 88%
ضغط 1002 hPa
الرؤية 10 كم أو أكثر
غيوم قليلة على ارتفاع 1500 قدم
غيوم مفككة على ارتفاع 5000 قدم

METAR: RJCO 241100Z 14012KT 9999 FEW015 BKN050 19/17 Q1002

زمن: 23:17 (14:17 UTC)


TAF: مفقودة

أرصاد الطقس والتوقعات من أكثر من 4000 مطار (تقارير الطقس للمطار METAR والتنبؤ بالطقس بالمطارTAF).

المحطات المتاحة هي النقط الصفراء والحمراء على الخريطة.

حرك المؤشر فوق النقطة لمعرفة اسم المحطة.

ثم انقر لمعرفة أرصاد وتوقعات الطقس.

لتغيير الخارطة: اضغط على الأزرار الخضراء مع رمز الصليب الأسود للتكبير. على الزر الأخضر مع شرطة للتصغير، أو على الأسهم الخضراء للخرائط المجاورة.


METAR-TAF: